Time;durP1;ratioP1;P1;durP2;ratioP2;P2;SDS_P1;SDS_P2;PMS_P1;PMS_P2;Temp;Humidity;BMP_temperature;BMP_pressure;BME280_temperature;BME280_humidity;BME280_pressure;Samples;Min_cycle;Max_cycle;Signal;HPM_P1;HPM_P2
2023/09/17 00:00:22;;;;;;;824.33;714.33;;;;;;;;;;5026573;28;20431;-67
2023/09/17 00:02:49;;;;;;;434.98;393.00;;;;;;;;;;5026552;28;20431;-67
2023/09/17 00:05:16;;;;;;;7.10;6.40;;;;;;;;;;5030875;28;21012;-67
2023/09/17 00:07:43;;;;;;;6.68;6.03;;;;;;;;;;5025796;28;20434;-67
2023/09/17 00:10:11;;;;;;;6.38;5.78;;;;;;;;;;5027493;28;20553;-67
2023/09/17 00:12:38;;;;;;;6.47;5.70;;;;;;;;;;5029460;28;20421;-67
2023/09/17 00:15:06;;;;;;;6.18;5.40;;;;;;;;;;5034834;28;20485;-67
2023/09/17 00:17:33;;;;;;;6.10;5.50;;;;;;;;;;5024048;28;21358;-67
2023/09/17 00:20:00;;;;;;;6.05;5.28;;;;;;;;;;5027413;28;20454;-68
2023/09/17 00:22:28;;;;;;;6.90;5.70;;;;;;;;;;5032055;28;20434;-67
2023/09/17 00:24:55;;;;;;;12.93;11.87;;;;;;;;;;5027662;28;20446;-67
2023/09/17 00:27:22;;;;;;;6.77;5.80;;;;;;;;;;5035882;28;20516;-67
2023/09/17 00:29:49;;;;;;;7.25;6.03;;;;;;;;;;5021870;28;20441;-67
2023/09/17 00:32:16;;;;;;;10.80;9.90;;;;;;;;;;5029934;28;20435;-67
2023/09/17 00:34:43;;;;;;;6.10;5.50;;;;;;;;;;5022202;28;20439;-67
2023/09/17 00:37:10;;;;;;;7.13;5.43;;;;;;;;;;5027369;28;20446;-67
2023/09/17 00:39:41;;;;;;;8.07;5.57;;;;;;;;;;5024359;28;20434;-67
2023/09/17 00:42:09;;;;;;;6.40;5.70;;;;;;;;;;5042469;28;21105;-67
2023/09/17 00:44:36;;;;;;;7.00;6.30;;;;;;;;;;5024639;28;20552;-67
2023/09/17 00:47:04;;;;;;;7.97;5.97;;;;;;;;;;5029830;28;20504;-67
2023/09/17 00:49:33;;;;;;;6.57;5.97;;;;;;;;;;5020745;28;20441;-67
2023/09/17 00:52:03;;;;;;;8.05;5.70;;;;;;;;;;5024352;28;20438;-67
2023/09/17 00:54:31;;;;;;;8.35;7.65;;;;;;;;;;5025307;28;21044;-67
2023/09/17 00:57:02;;;;;;;28.48;26.23;;;;;;;;;;5028219;28;20457;-67
2023/09/17 00:59:30;;;;;;;196.20;180.65;;;;;;;;;;5024955;28;20426;-67
2023/09/17 01:01:57;;;;;;;138.40;126.75;;;;;;;;;;5025103;28;21171;-66
2023/09/17 01:04:26;;;;;;;114.75;105.38;;;;;;;;;;5027728;28;20431;-68
2023/09/17 01:06:55;;;;;;;285.45;259.55;;;;;;;;;;5022764;28;20429;-67
2023/09/17 01:09:23;;;;;;;104.18;95.30;;;;;;;;;;5015891;28;20519;-67
2023/09/17 01:11:50;;;;;;;382.63;347.50;;;;;;;;;;5024628;28;21020;-67
2023/09/17 01:14:18;;;;;;;195.85;178.82;;;;;;;;;;5023129;28;20504;-67
2023/09/17 01:16:47;;;;;;;91.47;84.10;;;;;;;;;;5025407;28;20437;-67
2023/09/17 01:19:20;;;;;;;269.35;246.48;;;;;;;;;;5026046;28;20434;-67
2023/09/17 01:22:01;;;;;;;7.30;5.30;;;;;;;;;;5022715;28;20926;-67
2023/09/17 01:24:40;;;;;;;6.13;4.87;;;;;;;;;;5024773;28;20442;-67
2023/09/17 01:27:09;;;;;;;5.80;5.28;;;;;;;;;;5020580;28;20438;-67
2023/09/17 01:29:37;;;;;;;6.57;5.20;;;;;;;;;;5023859;28;20434;-66
2023/09/17 01:32:05;;;;;;;11.40;10.33;;;;;;;;;;5019656;28;20864;-67
2023/09/17 01:34:32;;;;;;;10.38;9.40;;;;;;;;;;5030852;28;20519;-67
2023/09/17 01:37:01;;;;;;;6.43;5.82;;;;;;;;;;5021156;28;20435;-67
2023/09/17 01:39:31;;;;;;;5.93;5.30;;;;;;;;;;5023930;28;20465;-67
2023/09/17 01:41:59;;;;;;;5.38;4.88;;;;;;;;;;5024571;28;20456;-67
2023/09/17 01:44:29;;;;;;;6.13;5.53;;;;;;;;;;5038011;28;20890;-66
2023/09/17 01:47:00;;;;;;;6.22;5.55;;;;;;;;;;5019596;28;20434;-67
2023/09/17 01:49:31;;;;;;;6.00;5.40;;;;;;;;;;5022568;28;20434;-67
2023/09/17 01:51:58;;;;;;;6.45;5.85;;;;;;;;;;5024189;28;20442;-67
2023/09/17 01:54:25;;;;;;;92.78;85.78;;;;;;;;;;5022966;28;20793;-66
2023/09/17 01:56:52;;;;;;;7.43;6.57;;;;;;;;;;5025479;28;20793;-67
2023/09/17 01:59:19;;;;;;;17.50;16.15;;;;;;;;;;5023126;28;20434;-67
2023/09/17 02:01:46;;;;;;;245.30;223.18;;;;;;;;;;5022653;28;20442;-66
2023/09/17 02:04:14;;;;;;;147.93;134.65;;;;;;;;;;5021228;28;20499;-67
2023/09/17 02:06:45;;;;;;;68.00;62.83;;;;;;;;;;5027237;28;20504;-67
2023/09/17 02:09:12;;;;;;;5.68;5.18;;;;;;;;;;5030427;28;20437;-67
2023/09/17 02:11:40;;;;;;;6.40;5.75;;;;;;;;;;5023467;28;20466;-67
2023/09/17 02:14:12;;;;;;;6.00;5.18;;;;;;;;;;5021224;28;20449;-67
2023/09/17 02:16:42;;;;;;;6.28;5.68;;;;;;;;;;5024526;28;20518;-67
2023/09/17 02:19:11;;;;;;;6.97;6.23;;;;;;;;;;5017796;28;20439;-67
2023/09/17 02:21:40;;;;;;;8.13;6.43;;;;;;;;;;5019992;28;20443;-67
2023/09/17 02:24:07;;;;;;;7.32;6.47;;;;;;;;;;5025275;28;20516;-67
2023/09/17 02:26:34;;;;;;;8.05;7.25;;;;;;;;;;5021402;28;20510;-67
2023/09/17 02:29:03;;;;;;;512.83;465.35;;;;;;;;;;5023870;28;21109;-67
2023/09/17 02:31:30;;;;;;;584.95;526.95;;;;;;;;;;5022220;28;20429;-67
2023/09/17 02:33:57;;;;;;;251.97;229.10;;;;;;;;;;5019945;28;20462;-67
2023/09/17 02:36:24;;;;;;;6.75;5.50;;;;;;;;;;5030341;28;20448;-68
2023/09/17 02:38:51;;;;;;;7.75;4.97;;;;;;;;;;5020135;28;20451;-67
2023/09/17 02:41:20;;;;;;;5.53;5.03;;;;;;;;;;5021869;28;20840;-67
2023/09/17 02:43:47;;;;;;;174.13;157.00;;;;;;;;;;5066836;28;20531;-67
2023/09/17 02:46:16;;;;;;;6.78;5.43;;;;;;;;;;5029593;28;20477;-66
2023/09/17 02:48:47;;;;;;;428.13;389.55;;;;;;;;;;5030820;28;20426;-66
2023/09/17 02:51:15;;;;;;;270.30;243.65;;;;;;;;;;5033215;28;20843;-66
2023/09/17 02:53:42;;;;;;;17.67;16.08;;;;;;;;;;5037949;28;20433;-66
2023/09/17 02:56:09;;;;;;;14.43;13.15;;;;;;;;;;5031380;28;20799;-66
2023/09/17 02:58:39;;;;;;;9.00;5.07;;;;;;;;;;5032751;28;20431;-66
2023/09/17 03:01:17;;;;;;;5.45;4.85;;;;;;;;;;5025749;28;20488;-66
2023/09/17 03:03:53;;;;;;;39.22;36.40;;;;;;;;;;5042788;22;20429;-76
2023/09/17 03:06:20;;;;;;;439.65;398.08;;;;;;;;;;5023306;28;20439;-75
2023/09/17 03:08:48;;;;;;;27.83;25.58;;;;;;;;;;5033827;28;20445;-81
2023/09/17 03:11:17;;;;;;;107.50;97.88;;;;;;;;;;5035953;28;20481;-81
2023/09/17 03:13:46;;;;;;;13.27;9.93;;;;;;;;;;5047056;28;20434;-81
2023/09/17 03:16:15;;;;;;;342.45;309.38;;;;;;;;;;5026522;28;20912;-81
2023/09/17 03:18:43;;;;;;;113.23;103.93;;;;;;;;;;5024776;28;20521;-81
2023/09/17 03:21:10;;;;;;;189.80;174.05;;;;;;;;;;5025046;28;20448;-78
2023/09/17 03:23:38;;;;;;;14.75;13.13;;;;;;;;;;5027571;28;20833;-78
2023/09/17 03:26:06;;;;;;;711.80;641.43;;;;;;;;;;5029296;28;20440;-78
2023/09/17 03:28:33;;;;;;;110.93;102.55;;;;;;;;;;5026974;28;20434;-79
2023/09/17 03:31:01;;;;;;;271.73;247.77;;;;;;;;;;5031109;28;20786;-78
2023/09/17 03:33:29;;;;;;;22.08;20.48;;;;;;;;;;5025268;28;20666;-79
2023/09/17 03:35:56;;;;;;;666.03;608.17;;;;;;;;;;5025399;28;20448;-79
2023/09/17 03:38:23;;;;;;;8.63;6.00;;;;;;;;;;5027989;28;21132;-79
2023/09/17 03:40:54;;;;;;;8.80;6.63;;;;;;;;;;5032528;28;20506;-79
2023/09/17 03:43:21;;;;;;;7.90;6.40;;;;;;;;;;5026585;28;20449;-79
2023/09/17 03:45:49;;;;;;;19.60;17.75;;;;;;;;;;5039746;28;20793;-79
2023/09/17 03:48:17;;;;;;;9.13;6.38;;;;;;;;;;5023345;28;20857;-79
2023/09/17 03:50:45;;;;;;;10.33;6.70;;;;;;;;;;5030288;28;20429;-79
2023/09/17 03:53:13;;;;;;;9.60;5.90;;;;;;;;;;5040490;28;20486;-79
2023/09/17 03:55:40;;;;;;;6.28;5.68;;;;;;;;;;5033905;28;20434;-79
2023/09/17 03:58:10;;;;;;;6.38;5.78;;;;;;;;;;5026329;28;20514;-79
2023/09/17 04:00:37;;;;;;;8.15;6.07;;;;;;;;;;5026495;28;20514;-79
2023/09/17 04:03:08;;;;;;;6.38;5.72;;;;;;;;;;5031452;28;20430;-79
2023/09/17 04:05:35;;;;;;;8.00;5.90;;;;;;;;;;5031270;28;20549;-79
2023/09/17 04:08:03;;;;;;;7.18;5.80;;;;;;;;;;5042207;28;20466;-79
2023/09/17 04:10:30;;;;;;;6.05;4.80;;;;;;;;;;5023146;28;20427;-79
2023/09/17 04:13:04;;;;;;;6.38;5.45;;;;;;;;;;5037273;28;20512;-79
2023/09/17 04:15:31;;;;;;;6.20;5.60;;;;;;;;;;5029451;28;20461;-79
2023/09/17 04:17:59;;;;;;;5.28;4.78;;;;;;;;;;5027827;28;20913;-79
2023/09/17 04:20:27;;;;;;;6.27;5.67;;;;;;;;;;5047708;28;20481;-79
2023/09/17 04:22:54;;;;;;;6.55;5.63;;;;;;;;;;5030217;28;20796;-79
2023/09/17 04:25:21;;;;;;;6.22;5.63;;;;;;;;;;5023050;28;20441;-79
2023/09/17 04:27:49;;;;;;;6.65;5.40;;;;;;;;;;5030657;28;20473;-79
2023/09/17 04:30:16;;;;;;;7.67;5.70;;;;;;;;;;5028102;28;20431;-79
2023/09/17 04:32:44;;;;;;;7.07;5.50;;;;;;;;;;5041111;28;20438;-79
2023/09/17 04:35:13;;;;;;;6.20;5.35;;;;;;;;;;5042747;28;20509;-79
2023/09/17 04:37:40;;;;;;;8.07;6.15;;;;;;;;;;5025922;28;20473;-79
2023/09/17 04:40:08;;;;;;;6.40;5.63;;;;;;;;;;5025923;28;20447;-79
2023/09/17 04:42:37;;;;;;;6.67;5.60;;;;;;;;;;5040478;28;20443;-79
2023/09/17 04:45:04;;;;;;;8.35;6.28;;;;;;;;;;5021227;28;20470;-79
2023/09/17 04:47:34;;;;;;;7.03;6.25;;;;;;;;;;5026292;28;20565;-80
2023/09/17 04:50:08;;;;;;;8.02;6.97;;;;;;;;;;5024380;28;20495;-80
2023/09/17 04:52:38;;;;;;;7.40;5.90;;;;;;;;;;5020625;28;21100;-80
2023/09/17 04:55:06;;;;;;;7.25;6.10;;;;;;;;;;5042178;28;20441;-80
2023/09/17 04:57:36;;;;;;;6.65;5.47;;;;;;;;;;5030280;28;20438;-81
2023/09/17 05:00:10;;;;;;;5.97;5.40;;;;;;;;;;5044632;28;20435;-81
2023/09/17 05:02:39;;;;;;;6.80;6.20;;;;;;;;;;5027009;28;20425;-81
2023/09/17 05:05:08;;;;;;;16.30;14.60;;;;;;;;;;5021410;28;20905;-80
2023/09/17 05:07:39;;;;;;;9.52;7.55;;;;;;;;;;5027473;28;20880;-80
2023/09/17 05:10:07;;;;;;;11.57;7.43;;;;;;;;;;5038847;28;20430;-81
2023/09/17 05:12:34;;;;;;;8.23;6.88;;;;;;;;;;5028403;28;20499;-81
2023/09/17 05:15:03;;;;;;;8.70;6.80;;;;;;;;;;5024934;28;20489;-80
2023/09/17 05:17:31;;;;;;;9.48;6.72;;;;;;;;;;5043589;28;20439;-80
2023/09/17 05:19:58;;;;;;;10.75;7.35;;;;;;;;;;5024176;28;20434;-80
2023/09/17 05:22:26;;;;;;;7.72;6.57;;;;;;;;;;5041295;28;20531;-80
2023/09/17 05:24:53;;;;;;;8.25;6.85;;;;;;;;;;5025977;28;20518;-81
2023/09/17 05:27:20;;;;;;;7.43;6.70;;;;;;;;;;5027343;28;20445;-81
2023/09/17 05:29:47;;;;;;;7.90;6.93;;;;;;;;;;5025956;28;20920;-81
2023/09/17 05:32:15;;;;;;;7.97;6.70;;;;;;;;;;5019409;28;20859;-81
2023/09/17 05:34:44;;;;;;;426.48;386.63;;;;;;;;;;5045661;28;20518;-81
2023/09/17 05:37:11;;;;;;;344.83;313.87;;;;;;;;;;5031365;28;20431;-79
2023/09/17 05:39:39;;;;;;;191.15;174.88;;;;;;;;;;5028721;28;20526;-81
2023/09/17 05:42:06;;;;;;;9.50;7.32;;;;;;;;;;5022615;28;20485;-81
2023/09/17 05:44:33;;;;;;;39.42;36.47;;;;;;;;;;5022888;28;20443;-80
2023/09/17 05:47:00;;;;;;;10.30;8.88;;;;;;;;;;5043063;28;20439;-81
2023/09/17 05:49:28;;;;;;;8.32;7.45;;;;;;;;;;5023118;28;20429;-80
2023/09/17 05:51:57;;;;;;;15.90;14.20;;;;;;;;;;5024378;28;20431;-80
2023/09/17 05:54:25;;;;;;;9.10;7.03;;;;;;;;;;5038320;28;20531;-80
2023/09/17 05:56:52;;;;;;;11.82;9.63;;;;;;;;;;5043805;28;20522;-81
2023/09/17 05:59:19;;;;;;;9.57;7.57;;;;;;;;;;5026770;28;20437;-81
2023/09/17 06:01:47;;;;;;;8.05;6.57;;;;;;;;;;5020980;28;20914;-80
2023/09/17 06:04:14;;;;;;;7.80;7.00;;;;;;;;;;5044379;28;20934;-81
2023/09/17 06:06:44;;;;;;;9.18;6.72;;;;;;;;;;5025891;28;20796;-81
2023/09/17 06:09:11;;;;;;;10.45;6.97;;;;;;;;;;5039628;28;20541;-80
2023/09/17 06:11:42;;;;;;;7.63;6.40;;;;;;;;;;5040513;28;20450;-80
2023/09/17 06:14:12;;;;;;;7.78;6.60;;;;;;;;;;5024587;28;20431;-81
2023/09/17 06:16:39;;;;;;;697.25;637.50;;;;;;;;;;5042076;28;20486;-80
2023/09/17 06:19:23;;;;;;;815.35;732.90;;;;;;;;;;5040101;28;20435;-81
2023/09/17 06:21:50;;;;;;;9.73;8.65;;;;;;;;;;5027650;28;20436;-81
2023/09/17 06:24:17;;;;;;;10.25;7.80;;;;;;;;;;5040800;28;20514;-81
2023/09/17 06:26:45;;;;;;;10.82;7.88;;;;;;;;;;5028229;28;21136;-82
2023/09/17 06:29:12;;;;;;;8.88;7.35;;;;;;;;;;5035420;28;20468;-82
2023/09/17 06:31:40;;;;;;;9.63;7.80;;;;;;;;;;5037952;28;20441;-83
2023/09/17 06:34:10;;;;;;;126.78;115.10;;;;;;;;;;5044953;28;20726;-82
2023/09/17 06:36:38;;;;;;;10.13;9.07;;;;;;;;;;5050026;28;20496;-83
2023/09/17 06:39:05;;;;;;;11.10;8.60;;;;;;;;;;5035927;28;20925;-82
2023/09/17 06:41:33;;;;;;;9.63;8.15;;;;;;;;;;5030379;28;20434;-84
2023/09/17 06:44:04;;;;;;;30.70;28.02;;;;;;;;;;5045084;28;20445;-83
2023/09/17 06:46:32;;;;;;;8.47;7.53;;;;;;;;;;5032109;28;20789;-82
2023/09/17 06:48:59;;;;;;;9.88;7.70;;;;;;;;;;5048500;28;20425;-83
2023/09/17 06:51:26;;;;;;;8.57;7.57;;;;;;;;;;5032976;28;20427;-82
2023/09/17 06:53:53;;;;;;;9.82;7.50;;;;;;;;;;5031700;28;20437;-84
2023/09/17 06:56:23;;;;;;;11.07;8.38;;;;;;;;;;5033239;28;20527;-82
2023/09/17 06:58:51;;;;;;;10.90;8.88;;;;;;;;;;5030620;28;20423;-83
2023/09/17 07:01:19;;;;;;;11.18;8.55;;;;;;;;;;5035480;28;20436;-82
2023/09/17 07:03:52;;;;;;;10.80;9.17;;;;;;;;;;5042464;28;20442;-82
2023/09/17 07:06:21;;;;;;;10.85;8.55;;;;;;;;;;5025061;28;20441;-82
2023/09/17 07:08:53;;;;;;;11.70;8.77;;;;;;;;;;5016693;28;20446;-82
2023/09/17 07:11:20;;;;;;;10.85;9.00;;;;;;;;;;5027973;28;20462;-81
2023/09/17 07:13:47;;;;;;;12.95;9.35;;;;;;;;;;5028992;28;20526;-82
2023/09/17 07:16:18;;;;;;;11.63;9.10;;;;;;;;;;5027128;28;20936;-82
2023/09/17 07:18:46;;;;;;;11.30;8.75;;;;;;;;;;5028990;28;20454;-82
2023/09/17 07:21:13;;;;;;;13.07;8.52;;;;;;;;;;5023429;28;20439;-82
2023/09/17 07:23:40;;;;;;;11.18;8.80;;;;;;;;;;5029802;28;20466;-82
2023/09/17 07:26:07;;;;;;;11.70;9.13;;;;;;;;;;5046338;28;20443;-82
2023/09/17 07:28:34;;;;;;;12.00;10.18;;;;;;;;;;5034659;28;20512;-82
2023/09/17 07:31:04;;;;;;;12.43;9.77;;;;;;;;;;5028828;28;20531;-82
2023/09/17 07:33:31;;;;;;;14.13;9.55;;;;;;;;;;5027412;28;20940;-82
2023/09/17 07:35:59;;;;;;;11.43;9.35;;;;;;;;;;5031145;28;20438;-83
2023/09/17 07:38:26;;;;;;;10.97;9.20;;;;;;;;;;5026769;28;20432;-83
2023/09/17 07:40:54;;;;;;;11.05;9.18;;;;;;;;;;5034550;28;20491;-80
2023/09/17 07:43:28;;;;;;;11.38;8.60;;;;;;;;;;5025150;28;20522;-82
2023/09/17 07:45:58;;;;;;;11.30;8.43;;;;;;;;;;5030673;28;20983;-82
2023/09/17 07:48:29;;;;;;;11.00;8.10;;;;;;;;;;5024039;28;20793;-82
2023/09/17 07:51:00;;;;;;;12.65;10.02;;;;;;;;;;5032193;28;20435;-82
2023/09/17 07:53:27;;;;;;;9.57;7.80;;;;;;;;;;5027917;28;20497;-82
2023/09/17 07:55:56;;;;;;;7.75;6.97;;;;;;;;;;5037514;28;20427;-82
2023/09/17 07:58:26;;;;;;;9.73;7.60;;;;;;;;;;5042591;28;20435;-81
2023/09/17 08:00:54;;;;;;;9.73;7.13;;;;;;;;;;5030803;28;20423;-82
2023/09/17 08:03:26;;;;;;;8.93;6.72;;;;;;;;;;5045880;28;20434;-82
2023/09/17 08:05:54;;;;;;;9.20;7.38;;;;;;;;;;5044237;28;20424;-82
2023/09/17 08:08:21;;;;;;;9.60;6.90;;;;;;;;;;5033821;28;20425;-81
2023/09/17 08:10:49;;;;;;;8.80;7.03;;;;;;;;;;5044829;28;20797;-82
2023/09/17 08:13:17;;;;;;;8.02;6.88;;;;;;;;;;5024565;28;20435;-81
2023/09/17 08:15:44;;;;;;;7.35;6.65;;;;;;;;;;5032615;28;20792;-82
2023/09/17 08:18:12;;;;;;;10.20;6.25;;;;;;;;;;5030646;28;20427;-82
2023/09/17 08:20:41;;;;;;;7.80;6.18;;;;;;;;;;5041608;28;20910;-82
2023/09/17 08:23:08;;;;;;;6.75;6.00;;;;;;;;;;5033553;28;20508;-82
2023/09/17 08:25:36;;;;;;;5.95;5.43;;;;;;;;;;5045408;28;21062;-81
2023/09/17 08:28:04;;;;;;;6.18;5.53;;;;;;;;;;5020927;28;20436;-83
2023/09/17 08:30:40;;;;;;;6.57;5.78;;;;;;;;;;5011825;28;20428;-83
2023/09/17 08:33:10;;;;;;;7.77;5.40;;;;;;;;;;5021100;28;20460;-82
2023/09/17 08:35:38;;;;;;;5.35;4.40;;;;;;;;;;5035945;28;20439;-81
2023/09/17 08:38:10;;;;;;;5.40;5.00;;;;;;;;;;5021439;28;20477;-81
2023/09/17 08:40:40;;;;;;;4.30;3.90;;;;;;;;;;5032581;28;20441;-82
2023/09/17 08:43:07;;;;;;;4.68;4.30;;;;;;;;;;5015018;28;20444;-81
2023/09/17 08:45:34;;;;;;;4.90;3.53;;;;;;;;;;5040098;28;20526;-81
2023/09/17 08:48:02;;;;;;;4.18;3.20;;;;;;;;;;5021296;28;20502;-82
2023/09/17 08:50:31;;;;;;;4.30;3.90;;;;;;;;;;5016765;28;20426;-81
2023/09/17 08:52:59;;;;;;;4.43;3.38;;;;;;;;;;5038552;28;20514;-82
2023/09/17 08:55:27;;;;;;;3.67;3.40;;;;;;;;;;5008871;28;20590;-81
2023/09/17 08:58:00;;;;;;;5.97;5.10;;;;;;;;;;5032273;28;20436;-81
2023/09/17 09:00:35;;;;;;;8.33;7.53;;;;;;;;;;5016750;28;20990;-82
2023/09/17 09:03:03;;;;;;;6.50;3.58;;;;;;;;;;5038115;28;21355;-82
2023/09/17 09:05:31;;;;;;;3.50;3.20;;;;;;;;;;5034353;28;20515;-82
2023/09/17 09:08:01;;;;;;;6.90;5.50;;;;;;;;;;5022796;28;21117;-81
2023/09/17 09:10:29;;;;;;;5.63;5.13;;;;;;;;;;5036965;28;20423;-81
2023/09/17 09:12:56;;;;;;;5.63;3.80;;;;;;;;;;5022641;28;20435;-80
2023/09/17 09:15:24;;;;;;;5.45;4.30;;;;;;;;;;5019821;28;20439;-82
2023/09/17 09:17:54;;;;;;;4.70;4.07;;;;;;;;;;5023099;28;20970;-82
2023/09/17 09:20:22;;;;;;;4.75;4.32;;;;;;;;;;5038554;28;20427;-82
2023/09/17 09:22:49;;;;;;;13.00;10.27;;;;;;;;;;5023867;28;20435;-81
2023/09/17 09:25:19;;;;;;;4.85;4.45;;;;;;;;;;5016909;28;20435;-82
2023/09/17 09:27:49;;;;;;;10.70;8.25;;;;;;;;;;5018166;28;20527;-82
2023/09/17 09:30:20;;;;;;;5.65;4.28;;;;;;;;;;5034241;28;20437;-82
2023/09/17 09:32:47;;;;;;;7.18;4.30;;;;;;;;;;5019990;28;20673;-83
2023/09/17 09:35:18;;;;;;;6.00;4.40;;;;;;;;;;5016576;28;20435;-82
2023/09/17 09:37:46;;;;;;;41.10;37.00;;;;;;;;;;5017110;28;20463;-82
2023/09/17 09:40:19;;;;;;;9.10;8.40;;;;;;;;;;5019837;28;20439;-81
2023/09/17 09:42:48;;;;;;;78.50;70.28;;;;;;;;;;5018751;28;20921;-82
2023/09/17 09:45:16;;;;;;;1031.10;943.30;;;;;;;;;;5021148;28;20431;-81
2023/09/17 09:47:50;;;;;;;4.32;3.92;;;;;;;;;;5022914;28;20435;-82
2023/09/17 09:50:21;;;;;;;7.53;6.83;;;;;;;;;;5034566;28;20432;-82
2023/09/17 09:52:49;;;;;;;4.55;3.20;;;;;;;;;;5023431;28;20727;-82
2023/09/17 09:55:16;;;;;;;3.85;3.33;;;;;;;;;;5029921;28;20768;-81
2023/09/17 09:57:46;;;;;;;3.47;3.28;;;;;;;;;;5037419;28;20430;-82
2023/09/17 10:00:16;;;;;;;6.63;3.77;;;;;;;;;;5023096;28;20436;-81
2023/09/17 10:02:44;;;;;;;312.80;285.15;;;;;;;;;;5022300;28;20855;-81
2023/09/17 10:05:12;;;;;;;1216.25;999.90;;;;;;;;;;5021309;28;20529;-81
2023/09/17 10:07:40;;;;;;;8.60;7.72;;;;;;;;;;5038115;28;20474;-82
2023/09/17 10:10:08;;;;;;;9.00;3.50;;;;;;;;;;5026407;28;20530;-82
2023/09/17 10:12:38;;;;;;;5.30;3.30;;;;;;;;;;5037712;28;20419;-82
2023/09/17 10:15:06;;;;;;;3.28;2.97;;;;;;;;;;5016075;28;20431;-81
2023/09/17 10:17:36;;;;;;;4.82;3.08;;;;;;;;;;5019737;28;20523;-81
2023/09/17 10:20:06;;;;;;;7.10;3.45;;;;;;;;;;5016669;28;20431;-82
2023/09/17 10:22:38;;;;;;;12.30;8.23;;;;;;;;;;5037531;28;20920;-81
2023/09/17 10:25:09;;;;;;;4.63;4.25;;;;;;;;;;5021705;28;20445;-81
2023/09/17 10:27:37;;;;;;;348.70;318.00;;;;;;;;;;5038382;28;20431;-82
2023/09/17 10:30:10;;;;;;;982.42;874.33;;;;;;;;;;5009209;28;20534;-82
2023/09/17 10:32:37;;;;;;;854.27;772.73;;;;;;;;;;5027203;28;20853;-81
2023/09/17 10:35:05;;;;;;;1141.53;999.90;;;;;;;;;;5014835;28;20603;-81
2023/09/17 10:37:34;;;;;;;952.05;835.60;;;;;;;;;;5031864;28;20547;-81
2023/09/17 10:40:02;;;;;;;987.60;856.15;;;;;;;;;;5033093;28;20493;-81
2023/09/17 10:42:30;;;;;;;964.80;845.30;;;;;;;;;;5036518;28;20885;-81
2023/09/17 10:44:58;;;;;;;967.47;860.05;;;;;;;;;;5030641;28;20691;-81
2023/09/17 10:47:25;;;;;;;1075.93;963.35;;;;;;;;;;5033630;28;20925;-82
2023/09/17 10:49:55;;;;;;;1024.50;913.50;;;;;;;;;;5020191;28;20525;-78
2023/09/17 10:52:23;;;;;;;518.35;470.63;;;;;;;;;;5017727;28;20530;-77
2023/09/17 10:54:50;;;;;;;1247.13;999.90;;;;;;;;;;5033019;28;20438;-78
2023/09/17 10:57:22;;;;;;;95.23;86.40;;;;;;;;;;5021543;28;20531;-78
2023/09/17 10:59:49;;;;;;;860.50;785.90;;;;;;;;;;5014146;28;20445;-78
2023/09/17 11:02:17;;;;;;;1168.32;999.90;;;;;;;;;;5020050;28;20521;-77
2023/09/17 11:04:45;;;;;;;3.10;2.60;;;;;;;;;;5040477;28;20550;-78
2023/09/17 11:07:12;;;;;;;3.13;2.88;;;;;;;;;;5023049;28;20432;-78
2023/09/17 11:09:41;;;;;;;1172.75;999.90;;;;;;;;;;5039137;28;20841;-78
2023/09/17 11:12:12;;;;;;;1238.20;999.90;;;;;;;;;;5022964;28;20514;-78
2023/09/17 11:14:40;;;;;;;1262.88;999.90;;;;;;;;;;5017392;28;20486;-78
2023/09/17 11:17:15;;;;;;;1277.90;999.90;;;;;;;;;;5041255;28;20435;-78
2023/09/17 11:19:42;;;;;;;1283.93;999.90;;;;;;;;;;5033792;28;20486;-78
2023/09/17 11:22:13;;;;;;;1238.05;999.90;;;;;;;;;;5025467;28;20430;-77
2023/09/17 11:24:40;;;;;;;1220.53;999.90;;;;;;;;;;5022231;28;20531;-77
2023/09/17 11:27:10;;;;;;;1228.53;999.90;;;;;;;;;;5018930;28;20871;-77
2023/09/17 11:29:38;;;;;;;1255.07;999.90;;;;;;;;;;5040347;28;21050;-78
2023/09/17 11:32:06;;;;;;;1243.43;999.90;;;;;;;;;;5038838;28;20520;-78
2023/09/17 11:34:34;;;;;;;1165.88;999.90;;;;;;;;;;5020314;28;20957;-78
2023/09/17 11:37:03;;;;;;;5.78;3.55;;;;;;;;;;5021216;28;20594;-78
2023/09/17 11:39:31;;;;;;;8.65;7.18;;;;;;;;;;5014313;28;20443;-78
2023/09/17 11:42:03;;;;;;;4.30;2.95;;;;;;;;;;5023911;28;20759;-77
2023/09/17 11:44:31;;;;;;;3.85;3.00;;;;;;;;;;5014007;28;20436;-77
2023/09/17 11:46:59;;;;;;;6.15;2.70;;;;;;;;;;5037219;28;20805;-78
2023/09/17 11:49:26;;;;;;;5.38;2.60;;;;;;;;;;5021563;28;20449;-77
2023/09/17 11:51:57;;;;;;;3.08;2.83;;;;;;;;;;5033072;28;21007;-78
2023/09/17 11:54:38;;;;;;;3.70;2.78;;;;;;;;;;5024618;28;20427;-77
2023/09/17 11:57:05;;;;;;;2.78;2.50;;;;;;;;;;5037206;28;20476;-77
2023/09/17 11:59:40;;;;;;;3.55;2.55;;;;;;;;;;5021186;28;20486;-77
2023/09/17 12:02:08;;;;;;;3.88;2.85;;;;;;;;;;5019491;28;20793;-77
2023/09/17 12:04:36;;;;;;;6.93;3.05;;;;;;;;;;5032048;28;20446;-78
2023/09/17 12:07:07;;;;;;;4.28;2.88;;;;;;;;;;5034000;28;20470;-77
2023/09/17 12:12:06;;;;;;;3.80;2.72;;;;;;;;;;5018202;28;20427;-78
2023/09/17 12:14:36;;;;;;;4.30;2.50;;;;;;;;;;5037790;28;20442;-78
2023/09/17 12:17:04;;;;;;;4.33;2.57;;;;;;;;;;5021723;28;20435;-77
2023/09/17 12:19:31;;;;;;;3.70;2.60;;;;;;;;;;5012926;28;20428;-78
2023/09/17 12:21:59;;;;;;;4.68;3.00;;;;;;;;;;5036086;28;20922;-78
2023/09/17 12:24:44;;;;;;;4.82;3.17;;;;;;;;;;5018691;28;20488;-78
2023/09/17 12:27:25;;;;;;;3.95;2.72;;;;;;;;;;5034072;28;20471;-78
2023/09/17 12:29:56;;;;;;;4.07;2.70;;;;;;;;;;5034959;28;20423;-78
2023/09/17 12:32:25;;;;;;;5.50;3.60;;;;;;;;;;5036224;28;20436;-78
2023/09/17 12:34:53;;;;;;;9.82;7.80;;;;;;;;;;5017405;28;20461;-78
2023/09/17 12:37:21;;;;;;;5.65;2.60;;;;;;;;;;5020044;28;20676;-78
2023/09/17 12:39:49;;;;;;;5.75;2.60;;;;;;;;;;5018200;28;20474;-78
2023/09/17 12:42:22;;;;;;;58.17;52.00;;;;;;;;;;5021514;28;20462;-78
2023/09/17 12:44:50;;;;;;;4.50;2.70;;;;;;;;;;5033394;28;20864;-79
2023/09/17 12:47:19;;;;;;;4.25;2.58;;;;;;;;;;5037562;28;20517;-80
2023/09/17 12:49:46;;;;;;;4.07;2.95;;;;;;;;;;5039056;28;20454;-78
2023/09/17 12:52:14;;;;;;;769.17;696.40;;;;;;;;;;5013449;28;20690;-79
2023/09/17 12:54:41;;;;;;;1055.83;962.10;;;;;;;;;;5038323;28;20844;-79
2023/09/17 12:57:08;;;;;;;10.77;8.93;;;;;;;;;;5036868;28;20528;-79
2023/09/17 12:59:40;;;;;;;5.40;3.00;;;;;;;;;;5039066;28;20470;-79
2023/09/17 13:02:08;;;;;;;3.22;2.35;;;;;;;;;;5034044;28;20434;-79
2023/09/17 13:04:41;;;;;;;4.20;2.75;;;;;;;;;;5019509;28;20430;-79
2023/09/17 13:07:19;;;;;;;5.88;2.65;;;;;;;;;;5037898;28;20435;-78
2023/09/17 13:09:47;;;;;;;4.47;2.80;;;;;;;;;;5022659;28;20862;-78
2023/09/17 13:12:23;;;;;;;3.33;2.78;;;;;;;;;;5022128;28;20427;-78
2023/09/17 13:14:51;;;;;;;67.30;60.35;;;;;;;;;;5018357;28;20858;-79
2023/09/17 13:17:22;;;;;;;155.65;142.32;;;;;;;;;;5037217;28;20527;-78
2023/09/17 13:19:49;;;;;;;6.10;2.58;;;;;;;;;;5015207;28;20508;-78
2023/09/17 13:22:17;;;;;;;1187.00;999.90;;;;;;;;;;5011889;28;20494;-78
2023/09/17 13:24:45;;;;;;;1288.55;999.90;;;;;;;;;;5012554;28;20433;-78
2023/09/17 13:27:15;;;;;;;1335.60;999.90;;;;;;;;;;5021475;28;20522;-79
2023/09/17 13:29:47;;;;;;;1260.77;999.90;;;;;;;;;;5033528;28;20463;-78
2023/09/17 13:32:16;;;;;;;11.07;7.33;;;;;;;;;;5034844;28;20838;-78
2023/09/17 13:34:45;;;;;;;477.80;434.20;;;;;;;;;;5015495;28;20713;-79
2023/09/17 13:37:13;;;;;;;5.65;2.50;;;;;;;;;;5020862;28;20801;-78
2023/09/17 13:39:52;;;;;;;6.80;3.10;;;;;;;;;;5035744;28;20524;-79
2023/09/17 13:42:20;;;;;;;4.40;2.65;;;;;;;;;;5037830;28;20430;-79
2023/09/17 13:44:48;;;;;;;81.07;73.78;;;;;;;;;;5038835;28;20431;-79
2023/09/17 13:47:15;;;;;;;7.63;3.20;;;;;;;;;;5022365;28;20488;-78
2023/09/17 13:49:42;;;;;;;1338.78;999.90;;;;;;;;;;5022668;28;20537;-78
2023/09/17 13:52:10;;;;;;;4.82;2.40;;;;;;;;;;5019383;28;20433;-79
2023/09/17 13:54:43;;;;;;;5.35;3.78;;;;;;;;;;5028020;28;20438;-78
2023/09/17 13:57:12;;;;;;;76.65;69.75;;;;;;;;;;5018374;28;20426;-78
2023/09/17 13:59:39;;;;;;;117.47;106.07;;;;;;;;;;5032797;28;20469;-79
2023/09/17 14:02:06;;;;;;;588.95;274.88;;;;;;;;;;5017505;28;20733;-78
2023/09/17 14:04:33;;;;;;;110.18;36.20;;;;;;;;;;5030919;28;20879;-79
2023/09/17 14:07:01;;;;;;;17.63;16.48;;;;;;;;;;5021153;28;20435;-79
2023/09/17 14:09:28;;;;;;;67.28;24.75;;;;;;;;;;5034671;28;20479;-79
2023/09/17 14:11:56;;;;;;;148.75;41.63;;;;;;;;;;5021017;28;20966;-79
2023/09/17 14:14:23;;;;;;;24.10;20.05;;;;;;;;;;5035154;28;20437;-78
2023/09/17 14:16:50;;;;;;;125.70;119.35;;;;;;;;;;5022762;28;20438;-78
2023/09/17 14:19:20;;;;;;;104.03;98.72;;;;;;;;;;5022299;28;20435;-78
2023/09/17 14:21:47;;;;;;;198.48;188.98;;;;;;;;;;5034322;28;20522;-79
2023/09/17 14:24:15;;;;;;;85.82;81.45;;;;;;;;;;5019969;28;20435;-78
2023/09/17 14:26:43;;;;;;;131.20;124.57;;;;;;;;;;5038049;28;20520;-79
2023/09/17 14:29:14;;;;;;;90.87;86.20;;;;;;;;;;5014237;28;20809;-79
2023/09/17 14:31:41;;;;;;;107.93;102.47;;;;;;;;;;5015642;28;20462;-79
2023/09/17 14:34:10;;;;;;;122.80;116.63;;;;;;;;;;5037079;28;20435;-79
2023/09/17 14:36:37;;;;;;;98.18;93.18;;;;;;;;;;5035164;28;20439;-79